Time;durP1;ratioP1;P1;durP2;ratioP2;P2;SDS_P1;SDS_P2;PMS_P1;PMS_P2;Temp;Humidity;BMP_temperature;BMP_pressure;BME280_temperature;BME280_humidity;BME280_pressure;Samples;Min_cycle;Max_cycle;Signal;HPM_P1;HPM_P2
2021/10/13 00:01:08;;;;;;;20.50;15.30;;;;;;;6.00;95.78;95888.09;5064755;28;20184;-79
2021/10/13 00:03:33;;;;;;;16.50;13.67;;;;;;;5.98;95.69;95892.56;5046989;28;20197;-78
2021/10/13 00:05:59;;;;;;;14.57;12.97;;;;;;;5.86;95.42;95889.09;5047238;28;20201;-79
2021/10/13 00:08:24;;;;;;;18.07;12.07;;;;;;;5.95;95.46;95892.78;5047959;28;20730;-78
2021/10/13 00:10:49;;;;;;;15.73;12.37;;;;;;;5.98;95.67;95887.41;5064586;28;20182;-78
2021/10/13 00:13:15;;;;;;;14.70;12.30;;;;;;;5.95;95.10;95893.59;5047593;28;20545;-78
2021/10/13 00:15:41;;;;;;;13.83;11.13;;;;;;;5.93;94.09;95900.63;5048176;28;20181;-79
2021/10/13 00:18:07;;;;;;;12.03;10.53;;;;;;;5.86;93.97;95901.97;5064836;28;20258;-79
2021/10/13 00:20:33;;;;;;;13.07;10.47;;;;;;;5.76;93.78;95901.00;5047515;28;20185;-78
2021/10/13 00:22:58;;;;;;;13.23;9.87;;;;;;;5.81;93.44;95910.97;5047730;28;20188;-79
2021/10/13 00:25:23;;;;;;;13.90;11.70;;;;;;;5.67;93.90;95917.09;5062987;28;20181;-79
2021/10/13 00:27:49;;;;;;;16.43;11.07;;;;;;;5.68;94.01;95916.19;5082180;28;20200;-78
2021/10/13 00:30:14;;;;;;;13.20;11.33;;;;;;;5.68;94.03;95921.31;5048106;28;20185;-79
2021/10/13 00:32:40;;;;;;;15.50;12.00;;;;;;;5.64;94.62;95923.28;5065001;28;20181;-79
2021/10/13 00:35:05;;;;;;;15.70;12.70;;;;;;;5.63;95.03;95925.97;5050412;28;20209;-78
2021/10/13 00:37:30;;;;;;;17.50;13.03;;;;;;;5.56;95.06;95919.59;5044067;28;20190;-79
2021/10/13 00:39:56;;;;;;;17.40;12.27;;;;;;;5.51;94.37;95919.94;5061697;28;20210;-79
2021/10/13 00:42:21;;;;;;;14.03;11.63;;;;;;;5.56;94.69;95925.56;5061150;28;20673;-78
2021/10/13 00:44:46;;;;;;;14.83;12.50;;;;;;;5.54;94.38;95922.28;5062049;28;20197;-79
2021/10/13 00:47:12;;;;;;;17.33;12.60;;;;;;;5.55;94.71;95933.41;5061762;28;20234;-78
2021/10/13 00:49:37;;;;;;;20.40;13.37;;;;;;;5.46;95.13;95932.31;5027342;28;20193;-80
2021/10/13 00:52:03;;;;;;;17.33;13.17;;;;;;;5.48;95.07;95919.31;5088239;28;20185;-79
2021/10/13 00:54:29;;;;;;;16.00;13.03;;;;;;;5.45;95.25;95917.78;5042738;28;20638;-79
2021/10/13 00:56:54;;;;;;;18.33;12.77;;;;;;;5.52;95.43;95919.00;5060530;28;20173;-79
2021/10/13 00:59:20;;;;;;;18.33;13.33;;;;;;;5.45;95.85;95922.94;5061772;28;20209;-79
2021/10/13 01:01:57;;;;;;;18.13;14.03;;;;;;;5.54;95.69;95914.56;5044465;28;20182;-79
2021/10/13 01:04:50;;;;;;;17.07;12.07;;;;;;;5.48;95.51;95917.59;5043256;28;20170;-78
2021/10/13 01:07:32;;;;;;;16.77;12.27;;;;;;;5.52;95.71;95921.56;5028205;28;20186;-78
2021/10/13 01:10:32;;;;;;;15.67;10.60;;;;;;;5.56;95.17;95924.75;5043764;28;20201;-79
2021/10/13 01:13:13;;;;;;;19.03;11.47;;;;;;;5.48;95.54;95927.88;5043136;28;20182;-78
2021/10/13 01:16:10;;;;;;;16.17;10.87;;;;;;;5.36;94.89;95939.84;5042488;28;20178;-79
2021/10/13 01:18:50;;;;;;;18.43;12.07;;;;;;;5.30;94.65;95945.44;5043261;28;20202;-78
2021/10/13 01:21:37;;;;;;;14.83;12.20;;;;;;;5.20;95.14;95951.31;5043805;28;20227;-79
2021/10/13 01:24:40;;;;;;;17.10;11.97;;;;;;;5.15;95.54;95948.25;5061160;28;20177;-79
2021/10/13 01:27:33;;;;;;;19.23;12.23;;;;;;;5.08;95.73;95950.41;5062382;28;20169;-79
2021/10/13 01:30:00;;;;;;;16.30;12.87;;;;;;;5.07;95.96;95953.91;5061604;28;20671;-78
2021/10/13 01:32:26;;;;;;;19.53;13.50;;;;;;;5.05;95.70;95951.44;5027422;28;20186;-79
2021/10/13 01:34:56;;;;;;;18.20;13.23;;;;;;;5.07;95.89;95956.47;5026579;28;20706;-78
2021/10/13 01:37:27;;;;;;;17.20;13.53;;;;;;;5.00;95.89;95966.34;5027629;28;20194;-79
2021/10/13 01:39:55;;;;;;;19.67;14.73;;;;;;;5.01;96.15;95964.59;5043694;28;20225;-79
2021/10/13 01:42:21;;;;;;;23.00;15.80;;;;;;;5.06;96.21;95972.84;5060141;28;20177;-79
2021/10/13 01:44:56;;;;;;;23.63;16.70;;;;;;;5.02;96.51;95979.94;5059096;28;20637;-78
2021/10/13 01:47:22;;;;;;;19.80;14.83;;;;;;;5.00;95.86;95980.97;5043412;28;20189;-79
2021/10/13 01:49:50;;;;;;;21.27;15.90;;;;;;;4.95;96.32;95983.06;5027875;28;20178;-79
2021/10/13 01:52:17;;;;;;;23.37;16.77;;;;;;;5.00;96.05;95988.69;5042793;28;20253;-79
2021/10/13 01:54:43;;;;;;;22.73;17.40;;;;;;;5.03;96.40;95989.31;5026458;28;20170;-79
2021/10/13 01:57:09;;;;;;;26.57;17.03;;;;;;;5.05;96.50;95994.38;5060395;28;20178;-79
2021/10/13 01:59:36;;;;;;;25.43;16.83;;;;;;;5.19;96.38;95996.00;5043326;28;20205;-79
2021/10/13 02:02:02;;;;;;;26.17;18.67;;;;;;;5.15;96.80;95997.97;5042328;28;20565;-78
2021/10/13 02:04:28;;;;;;;28.17;18.10;;;;;;;5.18;96.67;95997.75;5041953;28;20177;-78
2021/10/13 02:06:54;;;;;;;25.53;17.60;;;;;;;5.12;96.77;95998.16;5042352;28;20185;-79
2021/10/13 02:09:21;;;;;;;27.13;17.20;;;;;;;5.17;96.62;95997.88;5060073;28;20270;-79
2021/10/13 02:11:46;;;;;;;24.27;17.60;;;;;;;5.21;96.41;96005.28;5026338;28;20551;-79
2021/10/13 02:14:15;;;;;;;24.23;16.93;;;;;;;5.18;96.55;96007.22;5025960;28;20178;-78
2021/10/13 02:16:42;;;;;;;27.33;17.87;;;;;;;5.17;96.40;96001.25;5025379;28;20185;-79
2021/10/13 02:19:09;;;;;;;25.37;17.07;;;;;;;5.22;96.23;95999.22;5060303;28;20248;-79
2021/10/13 02:21:37;;;;;;;26.30;16.87;;;;;;;5.19;96.53;95999.41;5042322;28;20203;-79
2021/10/13 02:24:03;;;;;;;22.30;16.50;;;;;;;5.21;96.67;96001.88;5025816;28;20170;-79
2021/10/13 02:26:33;;;;;;;25.30;16.53;;;;;;;5.23;96.70;96012.91;5042828;28;20603;-79
2021/10/13 02:29:04;;;;;;;24.93;14.67;;;;;;;5.24;96.39;96017.94;5046904;28;20221;-79
2021/10/13 02:31:31;;;;;;;24.10;15.33;;;;;;;5.27;95.86;96014.34;5063071;28;20181;-79
2021/10/13 02:33:57;;;;;;;20.63;15.77;;;;;;;5.19;96.47;96020.00;5030035;28;20190;-79
2021/10/13 02:36:22;;;;;;;24.37;16.10;;;;;;;5.20;96.41;96024.22;5065356;28;20200;-79
2021/10/13 02:38:47;;;;;;;27.30;16.87;;;;;;;5.22;96.14;96030.13;5030876;28;20217;-78
2021/10/13 02:41:12;;;;;;;24.97;16.57;;;;;;;5.20;96.01;96026.78;5046981;28;20185;-79
2021/10/13 02:43:38;;;;;;;24.97;16.33;;;;;;;5.22;96.55;96032.69;5046340;28;20221;-79
2021/10/13 02:46:12;;;;;;;24.13;16.13;;;;;;;5.29;96.23;96028.75;5047183;28;20174;-78
2021/10/13 02:48:41;;;;;;;26.57;17.30;;;;;;;5.26;96.39;96036.69;5047122;28;20193;-80
2021/10/13 02:51:13;;;;;;;25.77;18.07;;;;;;;5.27;95.95;96035.75;5047221;28;20558;-78
2021/10/13 02:53:47;;;;;;;27.90;17.10;;;;;;;5.23;96.14;96031.75;5063852;28;20205;-79
2021/10/13 02:56:25;;;;;;;25.43;16.70;;;;;;;5.19;96.18;96038.03;5030246;28;20185;-78
2021/10/13 02:59:02;;;;;;;24.27;16.43;;;;;;;5.15;96.16;96033.19;5029990;28;20212;-79
2021/10/13 03:01:31;;;;;;;24.73;16.63;;;;;;;5.14;96.18;96034.94;5029784;28;20192;-79
2021/10/13 03:04:03;;;;;;;21.50;16.40;;;;;;;5.13;96.27;96033.31;5045984;28;20186;-78
2021/10/13 03:06:30;;;;;;;27.73;17.00;;;;;;;5.17;96.33;96037.31;5062579;28;20231;-78
2021/10/13 03:08:56;;;;;;;26.47;17.03;;;;;;;5.19;95.93;96032.06;5045899;28;20684;-79
2021/10/13 03:11:23;;;;;;;23.50;15.83;;;;;;;5.11;95.83;96029.97;5047364;28;20182;-79
2021/10/13 03:13:50;;;;;;;23.70;14.73;;;;;;;5.02;95.60;96031.41;5045400;28;20181;-80
2021/10/13 03:16:17;;;;;;;22.03;13.50;;;;;;;5.03;95.69;96039.97;5062835;28;20212;-79
2021/10/13 03:18:43;;;;;;;21.80;14.10;;;;;;;5.06;95.74;96039.78;5062229;28;20237;-79
2021/10/13 03:21:09;;;;;;;18.90;13.57;;;;;;;5.07;95.93;96028.56;5046964;28;20209;-79
2021/10/13 03:23:35;;;;;;;18.57;12.73;;;;;;;5.16;95.46;96037.41;5029971;28;20305;-79
2021/10/13 03:26:11;;;;;;;18.50;12.67;;;;;;;5.06;94.83;96039.78;5028830;28;20692;-79
2021/10/13 03:28:38;;;;;;;19.43;13.33;;;;;;;4.96;94.79;96033.59;5046210;28;20280;-79
2021/10/13 03:31:03;;;;;;;20.43;13.67;;;;;;;5.00;94.92;96047.91;5029270;28;20178;-79
2021/10/13 03:33:28;;;;;;;19.70;14.33;;;;;;;4.90;94.76;96046.88;5045387;28;20204;-79
2021/10/13 03:35:54;;;;;;;19.70;13.60;;;;;;;4.95;95.02;96042.25;5062366;28;20281;-79
2021/10/13 03:38:19;;;;;;;20.50;13.83;;;;;;;4.89;95.00;96052.94;5051890;28;20205;-79
2021/10/13 03:40:45;;;;;;;21.40;14.30;;;;;;;4.91;94.78;96057.06;5031657;28;20241;-79
2021/10/13 03:43:10;;;;;;;19.67;14.23;;;;;;;4.89;94.63;96050.38;5047234;28;20247;-79
2021/10/13 03:45:35;;;;;;;24.23;15.00;;;;;;;4.96;95.16;96060.16;5046222;28;20184;-79
2021/10/13 03:48:01;;;;;;;24.23;14.07;;;;;;;4.95;94.92;96055.13;5047319;28;20197;-79
2021/10/13 03:50:26;;;;;;;25.07;15.17;;;;;;;5.00;95.24;96058.19;5063411;28;20205;-80
2021/10/13 03:52:52;;;;;;;24.20;16.37;;;;;;;5.02;95.35;96057.16;5030628;28;20214;-79
2021/10/13 03:55:18;;;;;;;23.93;15.77;;;;;;;5.02;94.87;96053.75;5029612;28;20185;-79
2021/10/13 03:57:44;;;;;;;20.97;14.37;;;;;;;4.99;94.47;96048.84;5046718;28;20251;-79
2021/10/13 04:00:12;;;;;;;19.53;14.17;;;;;;;5.01;94.58;96055.50;5029092;28;20205;-79
2021/10/13 04:02:38;;;;;;;23.90;15.27;;;;;;;4.86;94.41;96056.53;5047094;28;20661;-79
2021/10/13 04:05:04;;;;;;;25.97;17.63;;;;;;;4.89;94.93;96058.91;5029138;28;20178;-79
2021/10/13 04:07:30;;;;;;;24.50;17.07;;;;;;;4.93;94.65;96069.81;5048198;28;20622;-79
2021/10/13 04:09:55;;;;;;;25.57;17.40;;;;;;;4.89;94.83;96083.81;5030500;28;20189;-79
2021/10/13 04:12:20;;;;;;;25.03;17.03;;;;;;;4.92;94.75;96091.31;5028284;28;20564;-79
2021/10/13 04:14:46;;;;;;;25.23;16.47;;;;;;;4.90;94.78;96091.44;5029009;28;20178;-79
2021/10/13 04:17:11;;;;;;;22.90;15.07;;;;;;;4.87;94.64;96094.22;5043034;28;20376;-79
2021/10/13 04:19:36;;;;;;;27.93;16.70;;;;;;;4.77;95.06;96088.00;5061597;28;20210;-78
2021/10/13 04:22:02;;;;;;;26.17;16.23;;;;;;;4.84;95.40;96092.66;5042937;28;20181;-78
2021/10/13 04:24:27;;;;;;;24.67;16.00;;;;;;;4.84;94.64;96102.94;5024686;28;20177;-79
2021/10/13 04:26:53;;;;;;;22.63;13.87;;;;;;;4.85;94.58;96103.75;5041419;28;20184;-79
2021/10/13 04:29:18;;;;;;;20.23;13.70;;;;;;;4.85;94.22;96103.75;5041267;28;20193;-79
2021/10/13 04:31:43;;;;;;;22.67;14.10;;;;;;;4.81;94.14;96108.28;5041490;28;20173;-78
2021/10/13 04:34:09;;;;;;;22.20;14.20;;;;;;;4.80;94.29;96101.50;5041575;28;20189;-79
2021/10/13 04:36:34;;;;;;;25.80;16.33;;;;;;;4.84;94.51;96113.22;5025930;28;20204;-79
2021/10/13 04:38:59;;;;;;;25.40;16.03;;;;;;;4.79;94.60;96112.72;5025186;28;20213;-79
2021/10/13 04:41:24;;;;;;;35.43;23.93;;;;;;;4.84;94.85;96102.94;5025183;28;20194;-78
2021/10/13 04:43:50;;;;;;;25.77;16.87;;;;;;;4.72;94.75;96108.06;5040863;28;20192;-79
2021/10/13 04:46:15;;;;;;;25.03;17.93;;;;;;;4.80;94.58;96110.97;5025645;28;20193;-78
2021/10/13 04:48:40;;;;;;;20.97;16.07;;;;;;;4.77;94.41;96119.72;5041714;28;20256;-79
2021/10/13 04:51:06;;;;;;;30.13;22.10;;;;;;;4.72;94.76;96118.34;5024581;28;20238;-78
2021/10/13 04:53:31;;;;;;;33.20;19.93;;;;;;;4.74;94.88;96122.47;5060006;28;20239;-78
2021/10/13 04:55:56;;;;;;;28.13;17.53;;;;;;;4.73;95.26;96125.97;5044317;28;20231;-79
2021/10/13 04:58:22;;;;;;;27.93;17.03;;;;;;;4.71;94.89;96116.72;5027795;28;20275;-79
2021/10/13 05:00:47;;;;;;;29.37;16.77;;;;;;;4.69;94.82;96123.72;5042837;28;20496;-78
2021/10/13 05:03:13;;;;;;;23.47;15.30;;;;;;;4.74;95.42;96127.63;5027377;28;20200;-79
2021/10/13 05:05:40;;;;;;;27.10;16.80;;;;;;;4.70;95.31;96121.03;5043409;28;20224;-79
2021/10/13 05:08:05;;;;;;;25.70;16.50;;;;;;;4.73;95.42;96120.81;5060079;28;20228;-78
2021/10/13 05:10:31;;;;;;;26.73;19.13;;;;;;;4.73;95.48;96128.53;5061037;28;20264;-78
2021/10/13 05:12:56;;;;;;;31.10;20.83;;;;;;;4.67;95.87;96118.63;5026960;28;20533;-80
2021/10/13 05:15:21;;;;;;;32.13;21.37;;;;;;;4.72;96.28;96123.50;5026491;28;20744;-79
2021/10/13 05:17:47;;;;;;;35.17;23.50;;;;;;;4.66;96.20;96121.31;5027443;28;20666;-79
2021/10/13 05:20:12;;;;;;;34.47;23.07;;;;;;;4.66;95.91;96111.84;5063346;28;20225;-78
2021/10/13 05:22:37;;;;;;;45.53;28.63;;;;;;;4.65;96.06;96111.94;5043391;28;20186;-79
2021/10/13 05:25:03;;;;;;;39.23;22.17;;;;;;;4.69;96.29;96113.41;5043317;28;20174;-79
2021/10/13 05:27:29;;;;;;;31.40;18.00;;;;;;;4.60;95.58;96112.25;5056862;28;20208;-80
2021/10/13 05:29:54;;;;;;;29.13;18.03;;;;;;;4.62;95.92;96128.41;5055321;28;20201;-79
2021/10/13 05:32:19;;;;;;;37.07;23.37;;;;;;;4.66;95.67;96123.88;5036412;28;20174;-79
2021/10/13 05:34:45;;;;;;;43.50;29.10;;;;;;;4.72;96.34;96123.50;5037710;28;20277;-78
2021/10/13 05:37:10;;;;;;;43.03;29.77;;;;;;;4.76;96.27;96120.63;5063512;28;20193;-79
2021/10/13 05:39:35;;;;;;;35.83;26.97;;;;;;;4.83;95.83;96123.63;5060614;28;20236;-80
2021/10/13 05:42:01;;;;;;;34.33;24.63;;;;;;;4.84;96.06;96127.84;5061400;28;20181;-80
2021/10/13 05:44:26;;;;;;;33.23;20.10;;;;;;;4.81;95.62;96135.78;5059468;28;20192;-79
2021/10/13 05:46:51;;;;;;;33.57;23.10;;;;;;;4.84;96.08;96133.00;5057636;28;20192;-80
2021/10/13 05:49:16;;;;;;;34.70;23.47;;;;;;;4.87;95.76;96143.13;5072598;28;20215;-80
2021/10/13 05:51:42;;;;;;;35.50;24.27;;;;;;;4.89;95.55;96148.97;5076813;28;20231;-80
2021/10/13 05:54:07;;;;;;;48.90;37.43;;;;;;;4.94;95.89;96148.66;5060775;28;20687;-79
2021/10/13 05:56:33;;;;;;;68.17;59.63;;;;;;;4.94;95.71;96159.78;5062889;28;20200;-79
2021/10/13 05:58:58;;;;;;;52.57;39.57;;;;;;;4.98;95.58;96161.25;5076729;28;20341;-79
2021/10/13 06:01:23;;;;;;;45.30;28.33;;;;;;;5.00;95.81;96167.13;5063324;28;20189;-78
2021/10/13 06:03:48;;;;;;;34.57;21.90;;;;;;;5.04;95.57;96176.31;5062116;28;20242;-79
2021/10/13 06:06:15;;;;;;;33.57;20.97;;;;;;;5.00;95.41;96179.19;5076798;28;20185;-78
2021/10/13 06:08:42;;;;;;;35.80;21.27;;;;;;;5.07;95.55;96190.72;5065765;28;20208;-81
2021/10/13 06:11:07;;;;;;;39.50;21.67;;;;;;;5.07;95.27;96183.00;5078818;28;20208;-80
2021/10/13 06:13:32;;;;;;;37.37;21.43;;;;;;;5.10;95.43;96198.25;5061197;28;20188;-80
2021/10/13 06:15:58;;;;;;;39.20;22.90;;;;;;;5.13;95.63;96189.53;5060993;28;20184;-80
2021/10/13 06:18:23;;;;;;;33.63;20.83;;;;;;;5.20;95.38;96189.00;5079866;28;20618;-80
2021/10/13 06:20:48;;;;;;;41.23;23.47;;;;;;;5.24;95.28;96197.38;5060311;28;20652;-80
2021/10/13 06:23:14;;;;;;;37.73;21.77;;;;;;;5.26;94.91;96206.66;5081082;28;20515;-79
2021/10/13 06:25:39;;;;;;;40.90;22.87;;;;;;;5.30;95.06;96213.25;5079580;28;20177;-79
2021/10/13 06:28:04;;;;;;;43.73;25.27;;;;;;;5.32;94.90;96219.13;5066712;28;20193;-79
2021/10/13 06:30:32;;;;;;;43.50;22.20;;;;;;;5.37;94.92;96222.22;5079787;28;20587;-79
2021/10/13 06:32:57;;;;;;;38.27;23.63;;;;;;;5.35;94.74;96220.69;5064776;28;20177;-79
2021/10/13 06:35:22;;;;;;;40.33;21.80;;;;;;;5.37;94.37;96232.53;5077551;28;20180;-79
2021/10/13 06:37:49;;;;;;;36.17;21.30;;;;;;;5.40;94.66;96234.91;5063641;28;20208;-79
2021/10/13 06:40:14;;;;;;;32.67;22.93;;;;;;;5.34;94.64;96231.91;5078431;28;20229;-81
2021/10/13 06:42:41;;;;;;;37.53;22.13;;;;;;;5.47;94.44;96237.06;5065882;28;20191;-80
2021/10/13 06:45:10;;;;;;;40.90;23.20;;;;;;;5.45;93.83;96247.50;5075845;28;20803;-79
2021/10/13 06:47:35;;;;;;;42.47;23.90;;;;;;;5.33;94.18;96240.56;5081364;28;20178;-81
2021/10/13 06:50:04;;;;;;;43.40;26.13;;;;;;;5.40;94.34;96237.50;5063943;28;20197;-80
2021/10/13 06:52:30;;;;;;;39.70;23.33;;;;;;;5.40;94.30;96244.41;5065414;28;20212;-80
2021/10/13 06:54:55;;;;;;;35.27;22.20;;;;;;;5.48;94.31;96246.44;5076856;28;20617;-80
2021/10/13 06:57:20;;;;;;;36.73;20.67;;;;;;;5.38;93.52;96252.19;5059797;28;20702;-79
2021/10/13 06:59:46;;;;;;;38.73;21.80;;;;;;;5.55;93.92;96250.28;5064266;28;20224;-79
2021/10/13 07:02:11;;;;;;;33.73;19.27;;;;;;;5.66;93.00;96248.69;5049358;28;20197;-80
2021/10/13 07:04:36;;;;;;;29.60;18.87;;;;;;;5.69;92.18;96253.63;5065858;28;20189;-81
2021/10/13 07:07:02;;;;;;;31.40;19.30;;;;;;;5.76;92.36;96254.06;5067190;28;20189;-81
2021/10/13 07:09:27;;;;;;;32.87;19.43;;;;;;;5.57;91.65;96259.59;5082662;28;20197;-80
2021/10/13 07:11:52;;;;;;;33.03;19.40;;;;;;;5.63;92.21;96250.63;5081896;28;20242;-80
2021/10/13 07:14:18;;;;;;;34.17;19.73;;;;;;;5.80;92.55;96246.94;5064942;28;20189;-80
2021/10/13 07:16:45;;;;;;;34.13;19.10;;;;;;;5.84;91.46;96246.66;5064133;28;20177;-80
2021/10/13 07:19:10;;;;;;;32.20;19.87;;;;;;;5.92;92.24;96253.91;5054844;28;20712;-81
2021/10/13 07:21:36;;;;;;;31.43;18.87;;;;;;;5.90;91.32;96253.13;5056332;28;20188;-82
2021/10/13 07:24:01;;;;;;;31.63;19.43;;;;;;;6.00;91.67;96243.06;5059524;28;20201;-83
2021/10/13 07:26:26;;;;;;;31.23;18.90;;;;;;;6.00;91.35;96240.47;5061069;28;20563;-84
2021/10/13 07:28:52;;;;;;;28.70;19.00;;;;;;;6.02;90.85;96241.22;5078661;28;20691;-80
2021/10/13 07:31:17;;;;;;;26.80;17.17;;;;;;;6.17;91.19;96235.84;5076997;28;20184;-81
2021/10/13 07:33:42;;;;;;;25.83;16.67;;;;;;;6.19;90.57;96248.66;5081457;28;20181;-80
2021/10/13 07:36:08;;;;;;;30.10;17.43;;;;;;;6.21;90.54;96259.69;5085574;28;20193;-78
2021/10/13 07:38:33;;;;;;;29.20;16.80;;;;;;;6.21;90.18;96246.78;5068454;28;20201;-80
2021/10/13 07:40:58;;;;;;;30.70;18.20;;;;;;;6.19;90.71;96258.97;5066965;28;20177;-81
2021/10/13 07:43:24;;;;;;;24.50;16.87;;;;;;;6.19;89.49;96256.41;5083089;28;20537;-79
2021/10/13 07:45:49;;;;;;;24.70;15.77;;;;;;;6.29;89.85;96270.31;5084279;28;20184;-80
2021/10/13 07:48:14;;;;;;;25.70;16.13;;;;;;;6.33;89.49;96268.34;5066984;28;20197;-78
2021/10/13 07:50:40;;;;;;;22.77;16.03;;;;;;;6.38;89.16;96274.84;5085934;28;20276;-79
2021/10/13 07:53:05;;;;;;;29.27;16.50;;;;;;;6.31;88.75;96273.59;5082445;28;20834;-79
2021/10/13 07:55:32;;;;;;;27.20;17.33;;;;;;;6.27;88.50;96271.31;5081363;28;20266;-79
2021/10/13 07:57:57;;;;;;;20.40;14.33;;;;;;;6.45;88.82;96280.44;5083360;28;20272;-80
2021/10/13 08:00:22;;;;;;;18.47;13.37;;;;;;;6.53;88.25;96273.78;5068421;28;20232;-78
2021/10/13 08:02:48;;;;;;;19.73;12.80;;;;;;;6.64;87.68;96282.56;5067687;28;20275;-79
2021/10/13 08:05:16;;;;;;;23.67;13.03;;;;;;;6.59;88.08;96279.47;5081280;28;20247;-78
2021/10/13 08:07:41;;;;;;;16.60;12.40;;;;;;;6.78;87.25;96285.81;5071170;28;20221;-79
2021/10/13 08:10:07;;;;;;;20.57;12.10;;;;;;;6.82;86.83;96291.63;5082492;28;20200;-77
2021/10/13 08:12:32;;;;;;;17.27;13.07;;;;;;;7.05;86.51;96293.41;5064509;28;20222;-78
2021/10/13 08:14:58;;;;;;;18.77;11.60;;;;;;;7.10;84.00;96293.09;5081352;28;20188;-78
2021/10/13 08:17:24;;;;;;;17.07;11.17;;;;;;;7.47;84.68;96298.22;5064578;28;20196;-79
2021/10/13 08:19:49;;;;;;;19.10;12.40;;;;;;;7.70;83.90;96296.56;5061334;28;20201;-79
2021/10/13 08:22:14;;;;;;;17.90;10.07;;;;;;;7.83;81.57;96305.06;5082507;28;20555;-77
2021/10/13 08:24:40;;;;;;;16.03;10.57;;;;;;;8.04;81.27;96311.28;5080448;28;20185;-78
2021/10/13 08:27:05;;;;;;;18.63;10.37;;;;;;;8.13;80.66;96318.34;5051778;28;20185;-78
2021/10/13 08:29:30;;;;;;;11.50;9.33;;;;;;;8.12;80.69;96319.25;5067992;28;20189;-79
2021/10/13 08:31:56;;;;;;;13.50;9.50;;;;;;;8.03;80.50;96314.78;5069728;28;20584;-79
2021/10/13 08:34:21;;;;;;;11.23;9.03;;;;;;;8.34;80.08;96317.69;5067252;28;20204;-78
2021/10/13 08:36:47;;;;;;;12.97;9.30;;;;;;;8.42;79.64;96308.44;5075124;28;20650;-77
2021/10/13 08:39:12;;;;;;;13.37;9.43;;;;;;;8.20;79.23;96316.09;5063913;28;20262;-79
2021/10/13 08:41:38;;;;;;;13.47;9.07;;;;;;;8.10;79.34;96310.78;5066006;28;20197;-78
2021/10/13 08:44:03;;;;;;;14.07;10.10;;;;;;;8.19;81.34;96306.69;5064285;28;20201;-79
2021/10/13 08:46:29;;;;;;;11.90;8.73;;;;;;;8.41;80.58;96309.38;5063871;28;20185;-79
2021/10/13 08:48:54;;;;;;;14.10;9.03;;;;;;;8.37;80.14;96320.06;5065838;28;20232;-79
2021/10/13 08:51:19;;;;;;;11.57;8.67;;;;;;;8.29;79.91;96319.78;5068965;28;20181;-79
2021/10/13 08:53:45;;;;;;;10.87;8.47;;;;;;;8.04;80.15;96315.59;5066074;28;20184;-79
2021/10/13 08:56:10;;;;;;;13.20;8.10;;;;;;;8.09;79.84;96318.69;5067652;28;20244;-79
2021/10/13 08:58:40;;;;;;;14.30;8.03;;;;;;;7.81;79.70;96310.34;5082415;28;20250;-78
2021/10/13 09:01:07;;;;;;;12.53;7.40;;;;;;;7.99;79.66;96315.94;5066579;28;20184;-78
2021/10/13 09:03:45;;;;;;;10.73;7.97;;;;;;;7.75;80.81;96312.56;5080955;28;20178;-78
2021/10/13 09:06:15;;;;;;;10.93;7.37;;;;;;;8.01;80.48;96311.47;5079115;28;20188;-78
2021/10/13 09:08:54;;;;;;;13.90;7.53;;;;;;;8.39;80.20;96313.00;5081987;28;20197;-78
2021/10/13 09:11:42;;;;;;;13.57;7.87;;;;;;;8.65;79.90;96322.22;5033735;28;20295;-78
2021/10/13 09:14:12;;;;;;;13.47;7.70;;;;;;;8.61;77.90;96325.16;5071318;28;20187;-78
2021/10/13 09:16:56;;;;;;;11.73;6.80;;;;;;;8.46;78.96;96329.72;5090967;28;20181;-77
2021/10/13 09:19:33;;;;;;;10.73;6.70;;;;;;;8.56;79.44;96330.66;5089959;28;20212;-78
2021/10/13 09:22:00;;;;;;;11.23;7.70;;;;;;;8.62;78.92;96327.63;5084597;28;20184;-79
2021/10/13 09:24:27;;;;;;;14.97;9.37;;;;;;;8.71;77.53;96326.94;5073051;28;20181;-78
2021/10/13 09:26:54;;;;;;;8.17;5.97;;;;;;;8.86;76.24;96326.72;5057633;28;20176;-78
2021/10/13 09:29:19;;;;;;;12.07;6.87;;;;;;;9.11;74.50;96336.81;5082341;28;20193;-79
2021/10/13 09:31:53;;;;;;;6.67;4.43;;;;;;;9.34;72.98;96333.25;5075710;28;20202;-78
2021/10/13 09:34:19;;;;;;;7.50;5.20;;;;;;;9.46;73.67;96330.66;5079635;28;20171;-79
2021/10/13 09:36:47;;;;;;;7.40;4.40;;;;;;;9.47;73.69;96337.47;5072168;28;20216;-77
2021/10/13 09:39:14;;;;;;;9.63;5.20;;;;;;;9.27;73.45;96333.84;5058562;28;20785;-78
2021/10/13 09:42:03;;;;;;;9.93;6.83;;;;;;;9.27;74.29;96333.84;5089136;28;20173;-78
2021/10/13 09:44:31;;;;;;;13.43;11.27;;;;;;;9.04;74.22;96338.22;5095146;28;20192;-79
2021/10/13 09:47:02;;;;;;;11.77;9.40;;;;;;;8.95;74.77;96326.00;5057161;28;21671;-78
2021/10/13 09:49:33;;;;;;;9.17;6.20;;;;;;;8.72;74.32;96328.56;5078390;28;20185;-79
2021/10/13 09:52:11;;;;;;;11.63;8.17;;;;;;;8.83;73.40;96332.09;5086768;28;20199;-79
2021/10/13 09:54:38;;;;;;;9.57;6.50;;;;;;;8.71;75.50;96332.09;5093741;28;20178;-81
2021/10/13 09:57:13;;;;;;;7.70;4.70;;;;;;;9.01;73.77;96334.13;5075164;28;20177;-79
2021/10/13 09:59:58;;;;;;;9.50;5.27;;;;;;;8.97;73.33;96331.88;5090189;28;20824;-80
2021/10/13 10:02:25;;;;;;;6.33;4.73;;;;;;;8.87;72.95;96334.34;5059371;28;20176;-78
2021/10/13 10:04:51;;;;;;;8.90;4.63;;;;;;;8.75;72.57;96335.31;5073869;28;20164;-79
2021/10/13 10:07:19;;;;;;;7.93;3.83;;;;;;;8.60;72.73;96332.09;5072886;28;20181;-78
2021/10/13 10:10:05;;;;;;;4.67;3.17;;;;;;;8.55;70.49;96339.38;5096897;28;20169;-79
2021/10/13 10:12:56;;;;;;;5.90;4.07;;;;;;;8.55;71.31;96338.56;5086639;28;20184;-78
2021/10/13 10:15:36;;;;;;;7.87;5.10;;;;;;;8.94;70.15;96329.53;5075074;28;20192;-79
2021/10/13 10:18:22;;;;;;;6.63;3.77;;;;;;;8.79;69.07;96329.75;5065195;28;20204;-80
2021/10/13 10:20:47;;;;;;;6.10;3.20;;;;;;;9.06;68.76;96325.97;5071343;28;20181;-78
2021/10/13 10:23:33;;;;;;;12.10;6.17;;;;;;;9.20;71.82;96330.91;5061482;28;20184;-78
2021/10/13 10:26:19;;;;;;;5.83;3.63;;;;;;;9.20;72.25;96325.75;5054988;28;20181;-78
2021/10/13 10:28:50;;;;;;;9.07;4.80;;;;;;;8.95;72.28;96332.00;5080295;28;20204;-79
2021/10/13 10:31:36;;;;;;;19.53;10.07;;;;;;;8.98;72.61;96331.75;5062965;28;20177;-77
2021/10/13 10:34:10;;;;;;;11.10;6.97;;;;;;;8.79;71.25;96334.94;5073370;28;20297;-78
2021/10/13 10:36:37;;;;;;;12.27;8.00;;;;;;;8.80;72.35;96334.00;5093484;28;20177;-77
2021/10/13 10:39:08;;;;;;;10.37;5.40;;;;;;;8.75;74.05;96343.06;5075771;28;20205;-78
2021/10/13 10:41:44;;;;;;;8.83;5.80;;;;;;;8.73;75.27;96340.56;5094695;28;20195;-78
2021/10/13 10:44:29;;;;;;;8.77;4.47;;;;;;;8.45;76.65;96346.19;5074410;28;20701;-79
2021/10/13 10:47:09;;;;;;;7.47;5.00;;;;;;;8.42;76.04;96351.63;5075448;28;20177;-78
2021/10/13 10:49:45;;;;;;;9.13;4.17;;;;;;;8.50;75.40;96349.28;5069729;28;20197;-78
2021/10/13 10:52:14;;;;;;;7.03;4.33;;;;;;;8.36;75.58;96347.72;5067267;28;20191;-78
2021/10/13 10:54:40;;;;;;;9.43;4.50;;;;;;;8.93;75.26;96346.84;5047784;28;20181;-77
2021/10/13 10:57:30;;;;;;;7.67;3.27;;;;;;;9.22;73.49;96343.75;5082454;28;20621;-79
2021/10/13 10:59:56;;;;;;;5.47;3.00;;;;;;;9.30;70.58;96344.81;5081471;28;20205;-77
2021/10/13 11:02:22;;;;;;;3.97;2.70;;;;;;;9.33;72.23;96346.31;5075108;28;20185;-77
2021/10/13 11:05:10;;;;;;;3.33;2.93;;;;;;;9.50;71.77;96343.22;5084040;28;20244;-77
2021/10/13 11:07:37;;;;;;;6.40;2.40;;;;;;;9.35;71.67;96347.03;5073104;28;20185;-80
2021/10/13 11:10:11;;;;;;;6.97;2.07;;;;;;;9.13;69.60;96340.09;5101729;28;20219;-79
2021/10/13 11:12:49;;;;;;;5.17;2.27;;;;;;;9.23;70.11;96342.81;5065400;28;20177;-80
2021/10/13 11:15:16;;;;;;;4.90;2.20;;;;;;;9.39;69.99;96348.44;5078595;28;20201;-81
2021/10/13 11:17:41;;;;;;;5.27;2.23;;;;;;;9.81;70.71;96338.19;5062172;28;20204;-79
2021/10/13 11:20:08;;;;;;;4.73;2.27;;;;;;;9.39;68.32;96332.06;5068121;28;20219;-79
2021/10/13 11:22:34;;;;;;;4.97;2.63;;;;;;;9.16;68.48;96342.44;5085031;28;20173;-80
2021/10/13 11:24:59;;;;;;;8.63;2.50;;;;;;;9.28;68.58;96340.69;5065562;28;20185;-79
2021/10/13 11:27:24;;;;;;;5.10;2.10;;;;;;;9.36;68.53;96346.94;5076337;28;20202;-78
2021/10/13 11:29:50;;;;;;;3.97;1.80;;;;;;;9.76;68.93;96342.94;5081115;28;20185;-78
2021/10/13 11:32:16;;;;;;;2.50;1.67;;;;;;;9.95;67.12;96345.69;5063381;28;20189;-77
2021/10/13 11:35:02;;;;;;;3.00;1.50;;;;;;;10.13;66.25;96348.53;5048780;28;20181;-78